createdAt,value
2019-01-29T00:02:12.739Z,1.95
2019-01-29T00:04:43.275Z,2.02
2019-01-29T00:07:13.965Z,2.06
2019-01-29T00:09:44.858Z,2.06
2019-01-29T00:12:16.017Z,2.10
2019-01-29T00:14:46.659Z,2.06
2019-01-29T00:17:17.409Z,2.00
2019-01-29T00:19:48.178Z,2.02
2019-01-29T00:22:18.878Z,2.08
2019-01-29T00:24:49.814Z,2.04
2019-01-29T00:27:20.423Z,2.08
2019-01-29T00:29:50.997Z,2.09
2019-01-29T00:32:21.550Z,2.13
2019-01-29T00:34:52.088Z,1.93
2019-01-29T00:37:22.632Z,1.88
2019-01-29T00:39:53.275Z,1.82
2019-01-29T00:42:24.041Z,1.82
2019-01-29T00:44:54.901Z,1.83
2019-01-29T00:47:25.655Z,1.81
2019-01-29T00:49:56.428Z,1.88
2019-01-29T00:52:27.450Z,1.92
2019-01-29T00:54:58.357Z,1.88
2019-01-29T00:57:29.142Z,1.88
2019-01-29T00:59:59.870Z,1.90
2019-01-29T01:02:30.424Z,1.94
2019-01-29T01:05:01.002Z,1.88
2019-01-29T01:07:31.502Z,1.93
2019-01-29T01:10:02.240Z,1.87
2019-01-29T01:12:32.883Z,1.87
2019-01-29T01:15:03.390Z,1.78
2019-01-29T01:17:34.071Z,1.79
2019-01-29T01:20:05.431Z,1.78
2019-01-29T01:22:35.998Z,1.67
2019-01-29T01:25:06.863Z,1.69
2019-01-29T01:27:37.504Z,1.68
2019-01-29T01:30:10.031Z,1.68
2019-01-29T01:32:40.633Z,1.70
2019-01-29T01:35:11.264Z,1.70
2019-01-29T01:37:41.817Z,1.70
2019-01-29T01:40:23.244Z,1.70
2019-01-29T01:42:53.943Z,1.66
2019-01-29T01:45:24.427Z,1.67
2019-01-29T01:47:55.017Z,1.77
2019-01-29T01:50:25.701Z,1.72
2019-01-29T01:52:59.450Z,1.72
2019-01-29T01:55:28.580Z,1.72
2019-01-29T01:57:59.167Z,1.75
2019-01-29T02:00:29.690Z,1.86
2019-01-29T02:03:00.266Z,1.86
2019-01-29T02:05:30.808Z,1.82
2019-01-29T02:08:01.371Z,1.86
2019-01-29T02:10:32.011Z,1.76
2019-01-29T02:13:02.556Z,1.77
2019-01-29T02:15:33.086Z,1.71
2019-01-29T02:18:03.654Z,1.69
2019-01-29T02:20:34.207Z,1.69
2019-01-29T02:23:08.219Z,1.58
2019-01-29T02:25:36.951Z,1.58
2019-01-29T02:28:08.498Z,1.45
2019-01-29T02:30:39.027Z,1.50
2019-01-29T02:33:09.539Z,1.43
2019-01-29T02:35:41.096Z,1.31
2019-01-29T02:38:11.675Z,1.31
2019-01-29T02:40:42.162Z,1.42
2019-01-29T02:43:12.777Z,1.44
2019-01-29T02:45:43.262Z,1.38
2019-01-29T02:48:13.807Z,1.37
2019-01-29T02:50:44.369Z,1.29
2019-01-29T02:53:18.383Z,1.26
2019-01-29T02:55:47.063Z,1.27
2019-01-29T02:58:17.710Z,1.32
2019-01-29T03:00:48.233Z,1.29
2019-01-29T03:03:18.775Z,1.30
2019-01-29T03:05:49.370Z,1.28
2019-01-29T03:08:19.986Z,1.17
2019-01-29T03:10:50.637Z,1.22
2019-01-29T03:13:21.278Z,1.22
2019-01-29T03:15:52.250Z,1.12
2019-01-29T03:18:22.802Z,1.15
2019-01-29T03:20:53.368Z,1.09
2019-01-29T03:23:27.535Z,1.13
2019-01-29T03:25:56.121Z,1.04
2019-01-29T03:28:26.675Z,0.96
2019-01-29T03:30:57.278Z,1.03
2019-01-29T03:33:27.810Z,1.05
2019-01-29T03:35:58.341Z,1.00
2019-01-29T03:38:28.851Z,1.04
2019-01-29T03:40:59.616Z,1.12
2019-01-29T03:43:30.166Z,0.98
2019-01-29T03:46:00.663Z,1.01
2019-01-29T03:48:31.322Z,0.98
2019-01-29T03:51:02.075Z,0.95
2019-01-29T03:53:38.229Z,0.97
2019-01-29T03:56:04.927Z,0.97
2019-01-29T03:58:35.376Z,1.00
2019-01-29T04:01:05.839Z,1.03
2019-01-29T04:03:36.306Z,0.97
2019-01-29T04:06:06.727Z,0.97
2019-01-29T04:08:37.195Z,0.95
2019-01-29T04:11:07.639Z,0.91
2019-01-29T04:13:38.085Z,0.83
2019-01-29T04:16:08.641Z,0.85
2019-01-29T04:18:39.116Z,0.84
2019-01-29T04:21:09.600Z,0.92
2019-01-29T04:23:47.291Z,0.98
2019-01-29T04:26:12.255Z,1.01
2019-01-29T04:28:42.711Z,1.08
2019-01-29T04:31:13.284Z,1.18
2019-01-29T04:33:43.808Z,1.20
2019-01-29T04:36:14.268Z,1.21
2019-01-29T04:38:44.789Z,1.38
2019-01-29T04:41:15.239Z,1.38
2019-01-29T04:43:45.688Z,1.26
2019-01-29T04:46:16.136Z,1.26
2019-01-29T04:48:46.651Z,1.28
2019-01-29T04:51:17.121Z,1.18
2019-01-29T04:53:56.836Z,1.27
2019-01-29T04:56:19.918Z,1.31
2019-01-29T04:58:50.462Z,1.39
2019-01-29T05:01:20.958Z,1.47
2019-01-29T05:03:51.661Z,1.55
2019-01-29T05:06:22.219Z,1.54
2019-01-29T05:08:52.645Z,1.54
2019-01-29T05:11:23.125Z,1.54
2019-01-29T05:13:53.689Z,1.57
2019-01-29T05:16:24.299Z,1.65
2019-01-29T05:18:54.806Z,1.65
2019-01-29T05:21:25.278Z,1.69
2019-01-29T05:23:55.851Z,1.76
2019-01-29T05:26:26.339Z,1.79
2019-01-29T05:28:56.818Z,1.79
2019-01-29T05:31:27.440Z,1.90
2019-01-29T05:33:58.023Z,1.80
2019-01-29T05:36:28.552Z,1.80
2019-01-29T05:38:59.028Z,1.92
2019-01-29T05:41:29.730Z,1.91
2019-01-29T05:44:00.267Z,1.91
2019-01-29T05:46:31.446Z,1.94
2019-01-29T05:49:01.929Z,2.03
2019-01-29T05:51:32.409Z,1.97
2019-01-29T05:54:02.876Z,1.97
2019-01-29T05:56:33.560Z,2.05
2019-01-29T05:59:04.032Z,2.13
2019-01-29T06:01:34.536Z,2.13
2019-01-29T06:04:05.164Z,2.05
2019-01-29T06:06:35.666Z,2.03
2019-01-29T06:09:08.790Z,2.14
2019-01-29T06:11:39.247Z,2.19
2019-01-29T06:14:09.762Z,2.29
2019-01-29T06:16:40.216Z,2.29
2019-01-29T06:19:10.619Z,2.38
2019-01-29T06:21:41.101Z,2.41
2019-01-29T06:24:11.616Z,2.48
2019-01-29T06:26:42.182Z,2.49
2019-01-29T06:29:12.681Z,2.49
2019-01-29T06:31:43.219Z,2.59
2019-01-29T06:34:13.697Z,2.64
2019-01-29T06:36:44.154Z,2.67
2019-01-29T06:39:14.618Z,2.62
2019-01-29T06:41:46.083Z,2.61
2019-01-29T06:44:16.544Z,2.66
2019-01-29T06:46:47.009Z,2.62
2019-01-29T06:49:17.499Z,2.60
2019-01-29T06:51:48.131Z,2.60
2019-01-29T06:54:18.600Z,2.61
2019-01-29T06:56:49.069Z,2.74
2019-01-29T06:59:19.541Z,2.78
2019-01-29T07:01:49.999Z,2.89
2019-01-29T07:04:20.526Z,2.85
2019-01-29T07:06:50.991Z,2.69
2019-01-29T07:09:21.474Z,2.67
2019-01-29T07:12:00.359Z,2.60
2019-01-29T07:14:30.817Z,2.67
2019-01-29T07:17:12.886Z,2.80
2019-01-29T07:19:46.142Z,2.89
2019-01-29T07:22:16.603Z,2.92
2019-01-29T07:24:47.105Z,2.95
2019-01-29T07:27:17.566Z,2.92
2019-01-29T07:29:48.056Z,3.06
2019-01-29T07:32:18.580Z,3.03
2019-01-29T07:34:49.020Z,2.90
2019-01-29T07:37:22.145Z,2.80
2019-01-29T07:39:51.661Z,2.95
2019-01-29T07:42:22.075Z,3.15
2019-01-29T07:44:52.553Z,3.18
2019-01-29T07:47:23.019Z,3.10
2019-01-29T07:49:53.411Z,3.19
2019-01-29T07:52:23.875Z,3.34
2019-01-29T07:54:54.360Z,3.49
2019-01-29T07:57:24.776Z,3.62
2019-01-29T07:59:55.280Z,3.74
2019-01-29T08:02:25.769Z,3.77
2019-01-29T08:04:56.187Z,3.88
2019-01-29T08:07:26.675Z,4.03
2019-01-29T08:09:57.222Z,4.09
2019-01-29T08:12:27.734Z,4.16
2019-01-29T08:14:58.229Z,4.13
2019-01-29T08:17:28.727Z,4.15
2019-01-29T08:19:59.251Z,4.17
2019-01-29T08:22:29.750Z,4.26
2019-01-29T08:25:01.819Z,4.30
2019-01-29T08:27:32.466Z,4.31
2019-01-29T08:30:03.135Z,4.45
2019-01-29T08:32:33.637Z,4.45
2019-01-29T08:35:04.114Z,4.42
2019-01-29T08:37:35.601Z,4.67
2019-01-29T08:40:06.510Z,4.82
2019-01-29T08:42:36.962Z,4.92
2019-01-29T08:45:07.813Z,5.05
2019-01-29T08:47:38.330Z,5.29
2019-01-29T08:50:11.415Z,5.54
2019-01-29T08:52:42.141Z,5.56
2019-01-29T08:55:12.632Z,5.77
2019-01-29T08:57:43.091Z,5.64
2019-01-29T09:00:14.775Z,5.67
2019-01-29T09:02:45.304Z,5.71
2019-01-29T09:05:15.787Z,5.64
2019-01-29T09:07:46.474Z,5.66
2019-01-29T09:10:17.124Z,5.66
2019-01-29T09:12:47.625Z,5.57
2019-01-29T09:15:18.161Z,5.51
2019-01-29T09:17:48.690Z,5.54
2019-01-29T09:20:19.263Z,5.75
2019-01-29T09:22:49.719Z,5.57
2019-01-29T09:25:22.658Z,5.52
2019-01-29T09:27:52.331Z,5.61
2019-01-29T09:30:22.952Z,5.52
2019-01-29T09:32:53.416Z,5.57
2019-01-29T09:35:23.875Z,5.70
2019-01-29T09:37:54.365Z,5.85
2019-01-29T09:40:24.818Z,5.92
2019-01-29T09:42:55.231Z,5.83
2019-01-29T09:45:25.741Z,5.77
2019-01-29T09:47:56.201Z,5.82
2019-01-29T09:50:26.677Z,5.85
2019-01-29T09:52:57.143Z,5.87
2019-01-29T09:55:29.629Z,5.84
2019-01-29T09:58:00.041Z,6.09
2019-01-29T10:00:35.822Z,6.38
2019-01-29T10:03:06.503Z,6.58
2019-01-29T10:05:37.969Z,6.76
2019-01-29T10:08:08.479Z,7.10
2019-01-29T10:10:38.869Z,6.98
2019-01-29T10:13:09.323Z,7.12
2019-01-29T10:15:39.778Z,7.31
2019-01-29T10:18:10.249Z,7.36
2019-01-29T10:20:40.770Z,7.39
2019-01-29T10:23:12.246Z,7.45
2019-01-29T10:25:42.697Z,7.32
2019-01-29T10:28:13.363Z,7.29
2019-01-29T10:30:43.836Z,7.26
2019-01-29T10:33:14.336Z,7.39
2019-01-29T10:35:44.791Z,7.46
2019-01-29T10:38:15.289Z,7.48
2019-01-29T10:40:45.751Z,7.48
2019-01-29T10:43:16.424Z,7.57
2019-01-29T10:45:47.499Z,7.57
2019-01-29T10:48:17.959Z,7.72
2019-01-29T10:50:48.434Z,7.62
2019-01-29T10:53:19.501Z,7.48
2019-01-29T10:55:49.976Z,7.46
2019-01-29T10:58:20.513Z,7.58
2019-01-29T11:00:51.624Z,7.70
2019-01-29T11:03:22.686Z,7.75
2019-01-29T11:05:53.750Z,7.71
2019-01-29T11:08:24.861Z,7.90
2019-01-29T11:10:55.321Z,7.76
2019-01-29T11:13:26.435Z,7.85
2019-01-29T11:15:57.510Z,7.61
2019-01-29T11:18:27.970Z,7.57
2019-01-29T11:20:59.055Z,7.77
2019-01-29T11:23:29.575Z,7.69
2019-01-29T11:26:00.018Z,7.80
2019-01-29T11:28:31.113Z,7.90
2019-01-29T11:31:02.168Z,8.30
2019-01-29T11:33:33.230Z,8.31
2019-01-29T11:36:04.307Z,8.53
2019-01-29T11:38:35.378Z,8.69
2019-01-29T11:41:06.444Z,8.63
2019-01-29T11:43:37.498Z,8.55
2019-01-29T11:46:08.578Z,8.63
2019-01-29T11:48:39.641Z,8.62
2019-01-29T11:51:10.707Z,8.60
2019-01-29T11:53:41.835Z,8.74
2019-01-29T11:56:12.902Z,8.77
2019-01-29T11:58:43.954Z,8.76
2019-01-29T12:01:17.993Z,8.71
2019-01-29T12:03:49.065Z,8.74
2019-01-29T12:06:20.105Z,8.80
2019-01-29T12:08:51.188Z,8.85
2019-01-29T12:11:22.269Z,8.91
2019-01-29T12:13:53.336Z,8.94
2019-01-29T12:16:24.382Z,9.10
2019-01-29T12:18:55.413Z,9.41
2019-01-29T12:21:26.476Z,9.45
2019-01-29T12:23:57.769Z,9.68
2019-01-29T12:26:28.840Z,9.69
2019-01-29T12:28:59.816Z,9.55
2019-01-29T12:31:30.875Z,9.48
2019-01-29T12:34:01.921Z,9.51
2019-01-29T12:36:32.971Z,9.92
2019-01-29T12:39:07.746Z,10.42
2019-01-29T12:41:39.007Z,10.69
2019-01-29T12:44:10.064Z,10.60
2019-01-29T12:46:41.099Z,10.54
2019-01-29T12:49:12.134Z,10.41
2019-01-29T12:51:52.351Z,10.29
2019-01-29T12:54:23.440Z,10.23
2019-01-29T12:56:54.528Z,9.80
2019-01-29T12:59:25.598Z,9.76
2019-01-29T13:01:56.634Z,9.90
2019-01-29T13:04:27.679Z,9.97
2019-01-29T13:06:58.800Z,10.05
2019-01-29T13:09:29.881Z,9.93
2019-01-29T13:12:00.923Z,9.67
2019-01-29T13:14:31.966Z,9.77
2019-01-29T13:17:03.016Z,9.71
2019-01-29T13:19:34.082Z,9.65
2019-01-29T13:22:05.239Z,9.56
2019-01-29T13:24:36.308Z,9.46
2019-01-29T13:27:07.351Z,9.36
2019-01-29T13:29:38.369Z,9.33
2019-01-29T13:32:09.447Z,9.38
2019-01-29T13:34:40.506Z,9.35
2019-01-29T13:37:11.543Z,9.38
2019-01-29T13:39:42.589Z,9.32
2019-01-29T13:42:13.620Z,9.33
2019-01-29T13:44:44.660Z,9.36
2019-01-29T13:47:15.749Z,9.31
2019-01-29T13:49:46.825Z,9.10
2019-01-29T13:52:17.922Z,8.94
2019-01-29T13:54:49.030Z,8.91
2019-01-29T13:57:20.102Z,9.10
2019-01-29T13:59:51.170Z,9.10
2019-01-29T14:02:22.257Z,9.07
2019-01-29T14:04:53.296Z,9.03
2019-01-29T14:07:24.345Z,9.03
2019-01-29T14:09:58.135Z,9.10
2019-01-29T14:12:29.121Z,9.13
2019-01-29T14:15:00.275Z,9.06
2019-01-29T14:17:31.287Z,9.14
2019-01-29T14:20:02.341Z,9.03
2019-01-29T14:22:33.409Z,8.99
2019-01-29T14:25:04.680Z,8.90
2019-01-29T14:27:35.784Z,8.80
2019-01-29T14:30:09.397Z,8.76
2019-01-29T14:32:40.506Z,8.66
2019-01-29T14:35:11.551Z,8.75
2019-01-29T14:38:29.197Z,8.71
2019-01-29T14:41:00.844Z,8.70
2019-01-29T14:43:32.707Z,8.52
2019-01-29T14:46:03.786Z,8.56
2019-01-29T14:48:34.844Z,8.45
2019-01-29T14:51:05.951Z,8.49
2019-01-29T14:53:37.064Z,8.46
2019-01-29T14:56:08.137Z,8.42
2019-01-29T14:58:39.214Z,8.45
2019-01-29T15:01:10.316Z,8.52
2019-01-29T15:03:41.361Z,8.41
2019-01-29T15:06:12.525Z,8.41
2019-01-29T15:08:43.556Z,8.34
2019-01-29T15:11:14.740Z,8.45
2019-01-29T15:13:45.893Z,8.43
2019-01-29T15:16:31.286Z,8.33
2019-01-29T15:19:06.332Z,8.46
2019-01-29T15:21:38.217Z,8.34
2019-01-29T15:24:09.386Z,8.24
2019-01-29T15:26:39.903Z,8.14
2019-01-29T15:29:10.907Z,8.14
2019-01-29T15:31:41.969Z,8.09
2019-01-29T15:34:13.021Z,8.11
2019-01-29T15:36:44.206Z,8.09
2019-01-29T15:39:15.327Z,8.08
2019-01-29T15:41:45.816Z,8.02
2019-01-29T15:44:16.309Z,7.88
2019-01-29T15:46:47.355Z,7.66
2019-01-29T15:49:17.883Z,7.48
2019-01-29T15:51:48.330Z,7.55
2019-01-29T15:54:18.878Z,7.45
2019-01-29T15:56:49.331Z,7.49
2019-01-29T15:59:20.404Z,7.46
2019-01-29T16:01:50.858Z,7.24
2019-01-29T16:04:21.443Z,7.24
2019-01-29T16:06:51.919Z,7.19
2019-01-29T16:09:22.377Z,7.08
2019-01-29T16:11:52.834Z,7.11
2019-01-29T16:14:23.317Z,7.08
2019-01-29T16:16:53.793Z,7.05
2019-01-29T16:19:24.278Z,7.05
2019-01-29T16:21:54.738Z,6.99
2019-01-29T16:24:25.218Z,6.83
2019-01-29T16:26:55.752Z,6.80
2019-01-29T16:29:27.233Z,6.77
2019-01-29T16:31:57.725Z,6.86
2019-01-29T16:34:28.230Z,6.70
2019-01-29T16:36:58.822Z,6.65
2019-01-29T16:39:29.226Z,6.64
2019-01-29T16:41:59.711Z,6.75
2019-01-29T16:44:30.190Z,6.84
2019-01-29T16:47:00.674Z,6.76
2019-01-29T16:49:32.165Z,6.77
2019-01-29T16:52:02.674Z,6.79
2019-01-29T16:54:33.123Z,6.96
2019-01-29T16:57:03.623Z,6.94
2019-01-29T16:59:35.012Z,6.83
2019-01-29T17:02:05.841Z,6.89
2019-01-29T17:04:36.397Z,6.97
2019-01-29T17:07:08.793Z,7.04
2019-01-29T17:09:39.342Z,7.12
2019-01-29T17:12:09.837Z,7.05
2019-01-29T17:14:40.335Z,6.97
2019-01-29T17:17:11.234Z,6.99
2019-01-29T17:19:41.799Z,6.98
2019-01-29T17:22:12.345Z,7.04
2019-01-29T17:24:42.919Z,6.95
2019-01-29T17:27:13.421Z,6.95
2019-01-29T17:29:43.910Z,6.77
2019-01-29T17:32:14.402Z,6.84
2019-01-29T17:34:44.951Z,6.69
2019-01-29T17:37:15.477Z,6.63
2019-01-29T17:39:45.976Z,6.53
2019-01-29T17:42:18.050Z,6.54
2019-01-29T17:44:48.540Z,6.59
2019-01-29T17:47:19.038Z,6.71
2019-01-29T17:49:49.508Z,6.56
2019-01-29T17:52:20.097Z,5.54
2019-01-29T17:54:50.606Z,6.52
2019-01-29T17:57:21.101Z,6.44
2019-01-29T17:59:51.614Z,6.44
2019-01-29T18:02:23.146Z,6.49
2019-01-29T18:04:53.704Z,6.53
2019-01-29T18:07:24.284Z,6.60
2019-01-29T18:09:54.906Z,6.70
2019-01-29T18:12:25.415Z,6.66
2019-01-29T18:14:55.921Z,6.57
2019-01-29T18:17:26.418Z,6.54
2019-01-29T18:19:56.920Z,6.56
2019-01-29T18:22:27.403Z,6.63
2019-01-29T18:24:57.933Z,6.61
2019-01-29T18:27:28.437Z,6.53
2019-01-29T18:29:59.064Z,6.63
2019-01-29T18:32:29.537Z,6.66
2019-01-29T18:35:00.037Z,6.64
2019-01-29T18:37:30.586Z,6.59
2019-01-29T18:40:01.217Z,6.58
2019-01-29T18:42:31.968Z,6.62
2019-01-29T18:45:02.485Z,6.67
2019-01-29T18:47:33.070Z,6.70
2019-01-29T18:50:03.619Z,6.73
2019-01-29T18:52:35.123Z,6.74
2019-01-29T18:55:07.166Z,6.72
2019-01-29T18:57:37.684Z,6.65
2019-01-29T19:00:12.198Z,6.70
2019-01-29T19:02:42.700Z,6.65
2019-01-29T19:05:13.222Z,6.69
2019-01-29T19:07:44.906Z,6.65
2019-01-29T19:10:17.317Z,6.53
2019-01-29T19:12:49.736Z,6.55
2019-01-29T19:15:21.723Z,6.38
2019-01-29T19:17:53.219Z,6.27
2019-01-29T19:20:24.748Z,6.01
2019-01-29T19:22:55.222Z,5.75
2019-01-29T19:25:25.732Z,5.57
2019-01-29T19:27:56.196Z,5.59
2019-01-29T19:30:28.956Z,5.68
2019-01-29T19:32:59.445Z,5.61
2019-01-29T19:35:29.948Z,5.68
2019-01-29T19:38:01.515Z,5.64
2019-01-29T19:40:32.030Z,5.60
2019-01-29T19:43:02.573Z,5.60
2019-01-29T19:45:34.177Z,5.58
2019-01-29T19:48:05.684Z,5.63
2019-01-29T19:50:36.303Z,5.74
2019-01-29T19:53:06.835Z,5.74
2019-01-29T19:55:37.363Z,5.81
2019-01-29T19:58:09.169Z,5.79
2019-01-29T20:00:42.938Z,5.62
2019-01-29T20:03:13.522Z,5.57
2019-01-29T20:05:44.020Z,5.62
2019-01-29T20:08:14.507Z,5.70
2019-01-29T20:10:45.017Z,5.72
2019-01-29T20:13:15.539Z,5.71
2019-01-29T20:15:46.087Z,5.72
2019-01-29T20:18:16.671Z,5.77
2019-01-29T20:20:47.166Z,5.69
2019-01-29T20:23:17.689Z,5.71
2019-01-29T20:25:49.161Z,5.67
2019-01-29T20:28:19.693Z,5.70
2019-01-29T20:30:50.428Z,5.62
2019-01-29T20:33:20.964Z,5.71
2019-01-29T20:35:51.457Z,5.56
2019-01-29T20:38:22.047Z,5.54
2019-01-29T20:40:52.546Z,5.60
2019-01-29T20:43:25.370Z,5.57
2019-01-29T20:45:55.482Z,5.45
2019-01-29T20:48:25.975Z,5.35
2019-01-29T20:50:56.470Z,5.38
2019-01-29T20:53:27.006Z,5.40
2019-01-29T20:55:57.749Z,5.34
2019-01-29T20:58:28.227Z,5.27
2019-01-29T21:00:58.784Z,5.21
2019-01-29T21:03:29.292Z,5.12
2019-01-29T21:05:59.832Z,4.98
2019-01-29T21:08:30.354Z,4.93
2019-01-29T21:11:00.846Z,4.94
2019-01-29T21:13:31.317Z,4.93
2019-01-29T21:16:01.814Z,4.98
2019-01-29T21:18:32.321Z,5.10
2019-01-29T21:21:02.760Z,5.18
2019-01-29T21:23:33.154Z,5.20
2019-01-29T21:26:03.642Z,5.29
2019-01-29T21:28:34.170Z,5.24
2019-01-29T21:31:04.647Z,5.19
2019-01-29T21:33:35.118Z,5.19
2019-01-29T21:36:05.604Z,5.08
2019-01-29T21:38:36.074Z,4.80
2019-01-29T21:41:06.571Z,4.84
2019-01-29T21:43:37.100Z,4.93
2019-01-29T21:46:07.564Z,4.97
2019-01-29T21:48:38.037Z,4.98
2019-01-29T21:51:08.507Z,4.97
2019-01-29T21:53:38.992Z,4.91
2019-01-29T21:56:09.410Z,4.96
2019-01-29T21:58:39.900Z,4.99
2019-01-29T22:01:10.398Z,5.00
2019-01-29T22:03:40.842Z,5.05
2019-01-29T22:06:11.307Z,5.07
2019-01-29T22:08:41.755Z,5.05
2019-01-29T22:11:12.297Z,4.90
2019-01-29T22:13:42.783Z,4.98
2019-01-29T22:16:13.244Z,5.00
2019-01-29T22:18:43.695Z,5.06
2019-01-29T22:21:14.177Z,5.13
2019-01-29T22:23:44.600Z,5.15
2019-01-29T22:26:15.111Z,5.17
2019-01-29T22:28:45.533Z,5.25
2019-01-29T22:31:15.926Z,5.23
2019-01-29T22:33:46.385Z,5.29
2019-01-29T22:36:16.862Z,5.23
2019-01-29T22:38:47.297Z,5.32
2019-01-29T22:41:17.765Z,5.27
2019-01-29T22:43:48.134Z,5.31
2019-01-29T22:46:18.594Z,5.17
2019-01-29T22:48:48.974Z,5.20
2019-01-29T22:51:19.478Z,5.24
2019-01-29T22:53:49.968Z,5.26
2019-01-29T22:56:20.437Z,5.23
2019-01-29T22:58:50.882Z,5.17
2019-01-29T23:01:33.458Z,5.04
2019-01-29T23:04:27.420Z,4.84
2019-01-29T23:07:07.077Z,4.73
2019-01-29T23:09:37.515Z,4.78
2019-01-29T23:12:07.968Z,4.79
2019-01-29T23:14:38.414Z,4.64
2019-01-29T23:17:08.885Z,4.49
2019-01-29T23:19:39.368Z,4.52
2019-01-29T23:22:10.109Z,4.50
2019-01-29T23:24:40.557Z,4.37
2019-01-29T23:27:11.138Z,4.30
2019-01-29T23:29:43.562Z,4.40
2019-01-29T23:32:13.763Z,4.34
2019-01-29T23:34:44.133Z,4.35
2019-01-29T23:37:14.605Z,4.44
2019-01-29T23:39:45.062Z,4.51
2019-01-29T23:42:15.561Z,4.48
2019-01-29T23:44:45.942Z,4.53
2019-01-29T23:47:16.338Z,4.59
2019-01-29T23:49:46.793Z,4.56
2019-01-29T23:52:17.253Z,4.58
2019-01-29T23:54:47.706Z,4.64
2019-01-29T23:57:18.405Z,4.70
2019-01-29T23:59:53.667Z,4.60
